Time;durP1;ratioP1;P1;durP2;ratioP2;P2;SDS_P1;SDS_P2;PMS_P1;PMS_P2;Temp;Humidity;BMP_temperature;BMP_pressure;BME280_temperature;BME280_humidity;BME280_pressure;Samples;Min_cycle;Max_cycle;Signal;HPM_P1;HPM_P2
2022/11/17 00:00:21;;;;;;;6.00;1.90;;;;;;;;;;5014292;28;20029;-77
2022/11/17 00:02:47;;;;;;;6.57;1.80;;;;;;;;;;5022997;28;20044;-76
2022/11/17 00:05:16;;;;;;;8.07;2.67;;;;;;;;;;5031364;28;20044;-77
2022/11/17 00:07:44;;;;;;;7.03;2.23;;;;;;;;;;5031423;28;20133;-77
2022/11/17 00:10:10;;;;;;;5.93;1.80;;;;;;;;;;5023247;28;20123;-77
2022/11/17 00:15:21;;;;;;;5.27;1.40;;;;;;;;;;5017230;28;20069;-77
2022/11/17 00:21:17;;;;;;;5.33;1.53;;;;;;;;;;5015673;28;20358;-76
2022/11/17 00:23:45;;;;;;;7.63;3.00;;;;;;;;;;5020821;28;20112;-76
2022/11/17 00:26:11;;;;;;;4.53;1.67;;;;;;;;;;5018964;28;20037;-76
2022/11/17 00:28:37;;;;;;;9.90;1.97;;;;;;;;;;5017675;28;20040;-77
2022/11/17 00:34:06;;;;;;;5.50;1.80;;;;;;;;;;5019307;28;20121;-76
2022/11/17 00:36:37;;;;;;;8.63;1.87;;;;;;;;;;5028913;28;20033;-77
2022/11/17 00:39:03;;;;;;;10.40;2.10;;;;;;;;;;5018411;28;20033;-76
2022/11/17 00:41:29;;;;;;;10.97;2.00;;;;;;;;;;5018092;28;20037;-76
2022/11/17 00:43:55;;;;;;;3.73;1.20;;;;;;;;;;5033576;28;20034;-77
2022/11/17 00:46:23;;;;;;;6.03;1.87;;;;;;;;;;5017768;28;20025;-75
2022/11/17 00:48:49;;;;;;;7.00;1.80;;;;;;;;;;5020983;28;20037;-76
2022/11/17 00:51:20;;;;;;;3.20;1.40;;;;;;;;;;5021001;28;20033;-76
2022/11/17 00:53:48;;;;;;;3.07;1.17;;;;;;;;;;5017425;28;20030;-76
2022/11/17 00:56:14;;;;;;;5.97;1.67;;;;;;;;;;5026058;28;20049;-77
2022/11/17 00:58:40;;;;;;;5.40;1.20;;;;;;;;;;5031442;28;20537;-77
2022/11/17 01:01:09;;;;;;;3.30;1.10;;;;;;;;;;5025702;28;20048;-76
2022/11/17 01:03:35;;;;;;;8.93;1.40;;;;;;;;;;5017056;28;20092;-77
2022/11/17 01:06:05;;;;;;;7.23;1.80;;;;;;;;;;5019429;28;20113;-77
2022/11/17 01:08:34;;;;;;;8.10;1.57;;;;;;;;;;5019776;28;20112;-76
2022/11/17 01:11:17;;;;;;;7.23;1.20;;;;;;;;;;5029018;28;20033;-77
2022/11/17 01:13:44;;;;;;;6.17;1.33;;;;;;;;;;5017847;28;20117;-77
2022/11/17 01:16:13;;;;;;;5.43;1.23;;;;;;;;;;5028638;28;20039;-77
2022/11/17 01:18:39;;;;;;;4.43;1.20;;;;;;;;;;5030571;28;20029;-77
2022/11/17 01:21:10;;;;;;;5.67;1.57;;;;;;;;;;5016949;28;20901;-76
2022/11/17 01:23:37;;;;;;;6.03;1.37;;;;;;;;;;5016728;28;20040;-77
2022/11/17 01:26:05;;;;;;;5.17;1.40;;;;;;;;;;5020624;28;20454;-76
2022/11/17 01:28:32;;;;;;;3.97;1.20;;;;;;;;;;5029742;28;20187;-76
2022/11/17 01:30:59;;;;;;;7.77;1.60;;;;;;;;;;5019304;28;20041;-77
2022/11/17 01:33:25;;;;;;;7.73;2.60;;;;;;;;;;5017574;28;20446;-76
2022/11/17 01:35:51;;;;;;;8.07;1.70;;;;;;;;;;5017859;28;20088;-76
2022/11/17 01:38:17;;;;;;;6.77;1.73;;;;;;;;;;5016593;28;20061;-76
2022/11/17 01:40:43;;;;;;;9.90;1.80;;;;;;;;;;5019885;28;20025;-76
2022/11/17 01:43:10;;;;;;;7.40;2.27;;;;;;;;;;5016943;28;20124;-76
2022/11/17 01:45:38;;;;;;;5.70;1.17;;;;;;;;;;5026921;28;20029;-76
2022/11/17 01:48:11;;;;;;;10.63;1.77;;;;;;;;;;5018321;28;20037;-77
2022/11/17 01:50:38;;;;;;;6.30;1.93;;;;;;;;;;5016811;28;20092;-76
2022/11/17 01:53:14;;;;;;;4.17;1.33;;;;;;;;;;5028174;28;20049;-77
2022/11/17 01:55:44;;;;;;;3.87;1.30;;;;;;;;;;5028755;28;20025;-77
2022/11/17 01:58:23;;;;;;;5.53;1.17;;;;;;;;;;5026545;28;20045;-77
2022/11/17 02:00:49;;;;;;;4.43;1.47;;;;;;;;;;5026257;28;20045;-77
2022/11/17 02:03:18;;;;;;;5.20;1.70;;;;;;;;;;5032545;28;20044;-78
2022/11/17 02:05:47;;;;;;;4.03;1.23;;;;;;;;;;5030132;28;21800;-77
2022/11/17 02:08:16;;;;;;;8.07;1.30;;;;;;;;;;5029381;28;20084;-76
2022/11/17 02:10:45;;;;;;;3.87;1.10;;;;;;;;;;5017570;28;20056;-77
2022/11/17 02:13:12;;;;;;;2.87;0.80;;;;;;;;;;5017978;28;20029;-76
2022/11/17 02:15:38;;;;;;;2.73;0.90;;;;;;;;;;5030123;28;20029;-76
2022/11/17 02:18:06;;;;;;;1.90;0.83;;;;;;;;;;5019758;28;20036;-77
2022/11/17 02:20:32;;;;;;;5.97;1.00;;;;;;;;;;5016845;28;20052;-76
2022/11/17 02:23:30;;;;;;;5.60;1.47;;;;;;;;;;5029330;28;20038;-76
2022/11/17 02:25:59;;;;;;;6.73;1.10;;;;;;;;;;5022762;28;20052;-77
2022/11/17 02:28:25;;;;;;;5.70;1.37;;;;;;;;;;5018292;28;20040;-76
2022/11/17 02:30:54;;;;;;;2.60;0.80;;;;;;;;;;5016721;28;20034;-77
2022/11/17 02:33:38;;;;;;;2.20;0.77;;;;;;;;;;5028016;28;20040;-77
2022/11/17 02:36:07;;;;;;;2.60;0.70;;;;;;;;;;5034368;28;20053;-76
2022/11/17 02:38:39;;;;;;;2.27;0.80;;;;;;;;;;5026978;28;20045;-76
2022/11/17 02:41:15;;;;;;;1.58;0.65;;;;;;;;;;5015172;28;20026;-76
2022/11/17 02:44:02;;;;;;;4.73;0.97;;;;;;;;;;5014421;28;20034;-77
2022/11/17 02:46:31;;;;;;;2.30;1.00;;;;;;;;;;5008950;28;20056;-75
2022/11/17 02:49:11;;;;;;;1.43;0.57;;;;;;;;;;5016770;28;20082;-77
2022/11/17 02:51:38;;;;;;;4.53;0.70;;;;;;;;;;5027117;28;20033;-76
2022/11/17 02:54:04;;;;;;;4.37;0.83;;;;;;;;;;5031117;28;20098;-76
2022/11/17 02:56:30;;;;;;;3.60;0.70;;;;;;;;;;5028015;28;20071;-76
2022/11/17 02:59:00;;;;;;;2.20;0.87;;;;;;;;;;5018449;28;20796;-76
2022/11/17 03:01:46;;;;;;;2.53;0.70;;;;;;;;;;5017509;28;20029;-76
2022/11/17 03:04:27;;;;;;;2.40;0.57;;;;;;;;;;5024643;28;20526;-75
2022/11/17 03:06:54;;;;;;;1.63;0.70;;;;;;;;;;5016816;28;20108;-76
2022/11/17 03:09:37;;;;;;;5.67;1.37;;;;;;;;;;5016932;28;20764;-76
2022/11/17 03:12:10;;;;;;;3.75;0.90;;;;;;;;;;5033290;28;20061;-76
2022/11/17 03:14:48;;;;;;;2.07;0.80;;;;;;;;;;5029231;28;20442;-76
2022/11/17 03:17:18;;;;;;;5.73;1.07;;;;;;;;;;5015482;28;20036;-76
2022/11/17 03:19:48;;;;;;;2.67;0.73;;;;;;;;;;5014039;28;20033;-75
2022/11/17 03:22:19;;;;;;;4.53;0.70;;;;;;;;;;5029970;28;20030;-76
2022/11/17 03:24:50;;;;;;;2.47;0.83;;;;;;;;;;5016315;28;20604;-76
2022/11/17 03:27:32;;;;;;;1.80;0.80;;;;;;;;;;5018396;28;20025;-76
2022/11/17 03:30:00;;;;;;;1.93;0.60;;;;;;;;;;5027347;28;20073;-76
2022/11/17 03:32:27;;;;;;;1.53;0.73;;;;;;;;;;5016169;28;20295;-76
2022/11/17 03:34:58;;;;;;;3.30;0.70;;;;;;;;;;5017405;28;20029;-76
2022/11/17 03:37:25;;;;;;;2.60;0.50;;;;;;;;;;5023301;28;20029;-76
2022/11/17 03:39:56;;;;;;;4.57;0.77;;;;;;;;;;5017507;28;20033;-76
2022/11/17 03:42:30;;;;;;;2.23;0.50;;;;;;;;;;5015486;28;20152;-76
2022/11/17 03:45:08;;;;;;;2.17;0.80;;;;;;;;;;5024778;28;20033;-77
2022/11/17 03:47:35;;;;;;;1.07;0.67;;;;;;;;;;5014712;28;20034;-75
2022/11/17 03:50:16;;;;;;;1.83;0.77;;;;;;;;;;5015502;28;20030;-76
2022/11/17 03:52:43;;;;;;;2.77;0.60;;;;;;;;;;5022694;28;20033;-76
2022/11/17 03:55:09;;;;;;;2.20;1.10;;;;;;;;;;5015403;28;20065;-76
2022/11/17 03:57:43;;;;;;;1.00;0.53;;;;;;;;;;5015803;28;20029;-77
2022/11/17 04:00:11;;;;;;;2.30;1.10;;;;;;;;;;5029045;28;20034;-75
2022/11/17 04:02:39;;;;;;;0.73;0.40;;;;;;;;;;5014540;28;20500;-77
2022/11/17 04:05:06;;;;;;;1.90;0.63;;;;;;;;;;5016983;28;20554;-76
2022/11/17 04:07:32;;;;;;;1.87;0.50;;;;;;;;;;5028488;28;20895;-75
2022/11/17 04:09:58;;;;;;;1.43;0.70;;;;;;;;;;5022859;28;20121;-77
2022/11/17 04:17:54;;;;;;;2.27;0.90;;;;;;;;;;5018014;28;20045;-76
2022/11/17 04:20:20;;;;;;;3.80;0.50;;;;;;;;;;5016969;28;20906;-76
2022/11/17 04:23:05;;;;;;;1.13;0.53;;;;;;;;;;5012564;28;20033;-76
2022/11/17 04:28:38;;;;;;;1.40;0.60;;;;;;;;;;5016435;28;20064;-76
2022/11/17 04:31:05;;;;;;;5.97;1.50;;;;;;;;;;5024722;28;20045;-76
2022/11/17 04:33:32;;;;;;;3.50;0.83;;;;;;;;;;5024592;28;20253;-76
2022/11/17 04:35:58;;;;;;;4.03;1.20;;;;;;;;;;5018550;28;20025;-76
2022/11/17 04:38:24;;;;;;;4.57;1.63;;;;;;;;;;5015031;28;20034;-76
2022/11/17 04:43:36;;;;;;;2.60;0.80;;;;;;;;;;5016008;28;20528;-77
2022/11/17 04:46:02;;;;;;;2.90;0.80;;;;;;;;;;5032635;28;20029;-76
2022/11/17 04:48:28;;;;;;;3.30;0.90;;;;;;;;;;5016499;28;20030;-76
2022/11/17 04:50:57;;;;;;;4.33;1.03;;;;;;;;;;5017076;28;20703;-76
2022/11/17 04:53:24;;;;;;;3.23;0.87;;;;;;;;;;5014924;28;20030;-76
2022/11/17 04:55:50;;;;;;;3.60;0.97;;;;;;;;;;5014956;28;20056;-76
2022/11/17 04:58:18;;;;;;;2.30;1.03;;;;;;;;;;5017335;28;20018;-76
2022/11/17 05:00:44;;;;;;;2.30;0.83;;;;;;;;;;5027388;28;20048;-77
2022/11/17 05:03:13;;;;;;;2.30;0.80;;;;;;;;;;5015509;28;20370;-75
2022/11/17 05:05:44;;;;;;;5.87;0.87;;;;;;;;;;5029837;28;20033;-76
2022/11/17 05:08:10;;;;;;;3.03;0.80;;;;;;;;;;5020643;28;20037;-76
2022/11/17 05:13:20;;;;;;;3.80;0.80;;;;;;;;;;5018810;28;20043;-76
2022/11/17 05:18:31;;;;;;;2.63;0.93;;;;;;;;;;5019995;28;20104;-76
2022/11/17 05:21:01;;;;;;;4.07;1.10;;;;;;;;;;5018833;28;20098;-76
2022/11/17 05:26:12;;;;;;;2.77;0.97;;;;;;;;;;5018171;28;20068;-76
2022/11/17 05:28:38;;;;;;;2.77;1.10;;;;;;;;;;5017838;28;20038;-75
2022/11/17 05:31:04;;;;;;;2.67;0.90;;;;;;;;;;5019388;28;20044;-78
2022/11/17 05:33:30;;;;;;;3.90;0.80;;;;;;;;;;5029333;28;20029;-74
2022/11/17 05:35:57;;;;;;;2.17;0.80;;;;;;;;;;5019039;28;20037;-76
2022/11/17 05:38:23;;;;;;;1.83;0.83;;;;;;;;;;5030224;28;20030;-76
2022/11/17 05:40:49;;;;;;;4.07;0.80;;;;;;;;;;5018085;28;20092;-76
2022/11/17 05:43:15;;;;;;;1.97;0.87;;;;;;;;;;5029766;28;20037;-76
2022/11/17 05:45:41;;;;;;;5.57;1.40;;;;;;;;;;5021036;28;20025;-76
2022/11/17 05:48:07;;;;;;;3.07;0.80;;;;;;;;;;5016712;28;20046;-76
2022/11/17 05:50:33;;;;;;;2.07;0.77;;;;;;;;;;5015469;28;20041;-76
2022/11/17 05:52:59;;;;;;;4.57;1.00;;;;;;;;;;5033126;28;20026;-76
2022/11/17 05:55:25;;;;;;;4.93;1.20;;;;;;;;;;5017219;28;20022;-77
2022/11/17 05:57:52;;;;;;;3.67;0.90;;;;;;;;;;5016575;28;20034;-75
2022/11/17 06:00:18;;;;;;;3.93;1.00;;;;;;;;;;5032131;28;20037;-76
2022/11/17 06:02:46;;;;;;;7.77;1.33;;;;;;;;;;5030813;28;20033;-77
2022/11/17 06:05:12;;;;;;;2.63;1.00;;;;;;;;;;5020067;28;20037;-76
2022/11/17 06:07:39;;;;;;;5.83;1.73;;;;;;;;;;5028460;28;20044;-76
2022/11/17 06:10:05;;;;;;;5.57;1.40;;;;;;;;;;5028679;28;20112;-77
2022/11/17 06:12:33;;;;;;;5.60;2.20;;;;;;;;;;5017815;28;20029;-77
2022/11/17 06:14:59;;;;;;;6.80;1.63;;;;;;;;;;5028812;28;20455;-77
2022/11/17 06:17:28;;;;;;;5.27;1.63;;;;;;;;;;5017538;28;20021;-77
2022/11/17 06:19:57;;;;;;;9.17;2.27;;;;;;;;;;5017005;28;21487;-76
2022/11/17 06:22:24;;;;;;;6.33;1.80;;;;;;;;;;5018572;28;20124;-76
2022/11/17 06:24:50;;;;;;;9.47;3.27;;;;;;;;;;5030042;28;20355;-76
2022/11/17 06:27:16;;;;;;;7.27;2.00;;;;;;;;;;5032192;28;20021;-76
2022/11/17 06:29:43;;;;;;;8.97;2.37;;;;;;;;;;5018203;28;20124;-76
2022/11/17 06:32:09;;;;;;;8.10;2.23;;;;;;;;;;5029677;28;20434;-76
2022/11/17 06:34:36;;;;;;;7.23;2.10;;;;;;;;;;5032857;28;20508;-76
2022/11/17 06:37:02;;;;;;;8.27;2.67;;;;;;;;;;5015127;28;20080;-76
2022/11/17 06:39:28;;;;;;;8.33;1.70;;;;;;;;;;5032499;28;20022;-76
2022/11/17 06:41:54;;;;;;;7.00;1.87;;;;;;;;;;5032596;28;20119;-76
2022/11/17 06:44:22;;;;;;;9.83;1.90;;;;;;;;;;5021003;28;20089;-76
2022/11/17 06:46:48;;;;;;;6.13;1.90;;;;;;;;;;5026703;28;20107;-76
2022/11/17 06:49:14;;;;;;;5.73;1.60;;;;;;;;;;5049787;28;20568;-76
2022/11/17 06:51:40;;;;;;;2.93;1.20;;;;;;;;;;5019839;28;20018;-76
2022/11/17 06:54:08;;;;;;;8.07;1.93;;;;;;;;;;5017982;28;20294;-77
2022/11/17 06:56:34;;;;;;;8.90;1.80;;;;;;;;;;5016817;28;20114;-76
2022/11/17 06:59:00;;;;;;;6.30;1.57;;;;;;;;;;5027728;28;20144;-77
2022/11/17 07:01:26;;;;;;;5.53;1.77;;;;;;;;;;5028246;28;20509;-76
2022/11/17 07:03:52;;;;;;;7.23;1.97;;;;;;;;;;5015122;28;20070;-76
2022/11/17 07:06:20;;;;;;;8.67;1.90;;;;;;;;;;5029571;28;20061;-77
2022/11/17 07:08:47;;;;;;;7.90;1.70;;;;;;;;;;5018327;28;20025;-76
2022/11/17 07:11:15;;;;;;;6.80;1.93;;;;;;;;;;5017838;28;20057;-77
2022/11/17 07:13:41;;;;;;;5.67;1.57;;;;;;;;;;5017724;28;20110;-76
2022/11/17 07:16:08;;;;;;;5.43;1.63;;;;;;;;;;5031221;28;20060;-77
2022/11/17 07:18:35;;;;;;;4.70;2.17;;;;;;;;;;5009500;28;20087;-78
2022/11/17 07:21:05;;;;;;;3.73;1.30;;;;;;;;;;5018548;28;20029;-77
2022/11/17 07:23:31;;;;;;;4.77;1.30;;;;;;;;;;5027224;28;20104;-78
2022/11/17 07:25:58;;;;;;;5.50;1.20;;;;;;;;;;5020477;28;20057;-77
2022/11/17 07:28:24;;;;;;;3.13;1.03;;;;;;;;;;5032369;28;20368;-78
2022/11/17 07:30:50;;;;;;;6.90;0.70;;;;;;;;;;5016909;28;20057;-77
2022/11/17 07:33:16;;;;;;;2.30;0.80;;;;;;;;;;5017675;28;20026;-78
2022/11/17 07:35:42;;;;;;;2.53;0.93;;;;;;;;;;5015468;28;20033;-78
2022/11/17 07:38:08;;;;;;;3.20;1.20;;;;;;;;;;5018470;28;20056;-77
2022/11/17 07:40:35;;;;;;;3.60;0.70;;;;;;;;;;5017144;28;20026;-77
2022/11/17 07:43:01;;;;;;;2.40;0.60;;;;;;;;;;5032215;28;20025;-77
2022/11/17 07:45:29;;;;;;;3.37;0.90;;;;;;;;;;5021446;28;20022;-75
2022/11/17 07:48:05;;;;;;;3.60;0.40;;;;;;;;;;5018915;28;20124;-77
2022/11/17 07:53:35;;;;;;;1.63;0.60;;;;;;;;;;5020100;28;20151;-76
2022/11/17 07:56:04;;;;;;;3.07;1.30;;;;;;;;;;5017524;28;20069;-77
2022/11/17 07:58:30;;;;;;;2.43;0.50;;;;;;;;;;5020667;28;20053;-78
2022/11/17 08:00:59;;;;;;;1.70;0.60;;;;;;;;;;5028337;28;20060;-77
2022/11/17 08:03:25;;;;;;;1.40;0.90;;;;;;;;;;5034325;28;20125;-76
2022/11/17 08:05:52;;;;;;;2.27;0.73;;;;;;;;;;5037274;28;20029;-77
2022/11/17 08:08:18;;;;;;;4.40;1.00;;;;;;;;;;5017185;28;20133;-78
2022/11/17 08:10:44;;;;;;;0.97;0.43;;;;;;;;;;5019890;28;20068;-77
2022/11/17 08:13:11;;;;;;;4.33;1.00;;;;;;;;;;5016617;28;20029;-78
2022/11/17 08:15:37;;;;;;;3.30;1.20;;;;;;;;;;5030397;28;20116;-78
2022/11/17 08:18:05;;;;;;;2.63;1.10;;;;;;;;;;5026679;28;20030;-77
2022/11/17 08:20:31;;;;;;;4.53;1.00;;;;;;;;;;5017097;28;20041;-78
2022/11/17 08:22:57;;;;;;;2.80;1.00;;;;;;;;;;5018564;28;20049;-77
2022/11/17 08:25:24;;;;;;;5.30;1.10;;;;;;;;;;5028725;28;20187;-77
2022/11/17 08:27:53;;;;;;;3.33;0.67;;;;;;;;;;5019978;28;20033;-77
2022/11/17 08:30:20;;;;;;;3.63;0.90;;;;;;;;;;5016992;28;20445;-77
2022/11/17 08:32:47;;;;;;;1.40;0.57;;;;;;;;;;5016672;28;20044;-78
2022/11/17 08:35:13;;;;;;;4.07;0.50;;;;;;;;;;5029456;28;20022;-77
2022/11/17 08:37:40;;;;;;;1.63;0.77;;;;;;;;;;5016991;28;20056;-77
2022/11/17 08:40:06;;;;;;;1.83;0.97;;;;;;;;;;5025121;28;20030;-78
2022/11/17 08:42:32;;;;;;;1.60;0.57;;;;;;;;;;5023223;28;20120;-77
2022/11/17 08:45:01;;;;;;;1.97;0.50;;;;;;;;;;5020123;28;20530;-76
2022/11/17 08:47:29;;;;;;;2.43;0.40;;;;;;;;;;5022615;28;20030;-76
2022/11/17 08:49:55;;;;;;;1.10;0.60;;;;;;;;;;5020443;28;20076;-76
2022/11/17 08:52:21;;;;;;;2.57;0.87;;;;;;;;;;5019653;28;20053;-77
2022/11/17 08:54:51;;;;;;;4.03;0.60;;;;;;;;;;5021980;28;20033;-77
2022/11/17 08:57:17;;;;;;;2.83;1.20;;;;;;;;;;5021755;28;20985;-77
2022/11/17 08:59:43;;;;;;;5.30;1.67;;;;;;;;;;5020931;28;20030;-77
2022/11/17 09:02:11;;;;;;;3.47;1.00;;;;;;;;;;5030183;28;20036;-77
2022/11/17 09:04:39;;;;;;;2.00;0.70;;;;;;;;;;5020049;28;20160;-77
2022/11/17 09:07:05;;;;;;;2.87;0.87;;;;;;;;;;5022148;28;20042;-78
2022/11/17 09:09:32;;;;;;;2.73;0.60;;;;;;;;;;5032159;28;20030;-77
2022/11/17 09:12:00;;;;;;;2.43;0.57;;;;;;;;;;5022411;28;20021;-78
2022/11/17 09:14:26;;;;;;;2.73;0.80;;;;;;;;;;5032227;28;20140;-78
2022/11/17 09:16:52;;;;;;;3.10;0.73;;;;;;;;;;5032007;28;20140;-77
2022/11/17 09:19:18;;;;;;;3.63;0.83;;;;;;;;;;5022293;28;20124;-77
2022/11/17 09:21:49;;;;;;;1.83;0.90;;;;;;;;;;5021918;28;20435;-77
2022/11/17 09:24:15;;;;;;;2.93;1.07;;;;;;;;;;5033547;28;20037;-77
2022/11/17 09:26:43;;;;;;;1.97;0.70;;;;;;;;;;5019388;28;20149;-77
2022/11/17 09:29:09;;;;;;;4.57;0.60;;;;;;;;;;5019485;28;20443;-78
2022/11/17 09:31:36;;;;;;;2.00;0.70;;;;;;;;;;5019405;28;20125;-77
2022/11/17 09:34:05;;;;;;;2.37;1.03;;;;;;;;;;5023826;28;20100;-77
2022/11/17 09:36:34;;;;;;;3.93;1.10;;;;;;;;;;5023022;28;20438;-77
2022/11/17 09:39:00;;;;;;;3.27;0.73;;;;;;;;;;5019422;28;20025;-77
2022/11/17 09:41:31;;;;;;;1.23;0.40;;;;;;;;;;5032215;28;20119;-78
2022/11/17 09:44:15;;;;;;;2.23;0.50;;;;;;;;;;5019499;28;20033;-77
2022/11/17 09:46:45;;;;;;;1.57;0.70;;;;;;;;;;5034558;28;20084;-77
2022/11/17 09:49:15;;;;;;;4.83;0.60;;;;;;;;;;5027614;28;20025;-78
2022/11/17 09:51:43;;;;;;;3.90;0.47;;;;;;;;;;5018802;28;20029;-76
2022/11/17 09:54:29;;;;;;;1.87;0.70;;;;;;;;;;5020173;28;20029;-78
2022/11/17 09:56:56;;;;;;;1.63;0.93;;;;;;;;;;5031919;28;20033;-77
2022/11/17 09:59:24;;;;;;;2.60;0.60;;;;;;;;;;5030816;28;20022;-78
2022/11/17 10:01:50;;;;;;;5.60;1.03;;;;;;;;;;5031159;28;20418;-78
2022/11/17 10:04:18;;;;;;;3.40;0.70;;;;;;;;;;5021798;28;20116;-76
2022/11/17 10:06:45;;;;;;;3.27;1.03;;;;;;;;;;5019701;28;20030;-75
2022/11/17 10:09:31;;;;;;;1.83;0.70;;;;;;;;;;5029012;28;20446;-76
2022/11/17 10:12:02;;;;;;;5.30;0.77;;;;;;;;;;5020409;28;20029;-77
2022/11/17 10:14:29;;;;;;;5.67;0.60;;;;;;;;;;5015941;28;20080;-78
2022/11/17 10:16:56;;;;;;;2.23;0.43;;;;;;;;;;5014758;28;20484;-78
2022/11/17 10:19:30;;;;;;;3.53;1.13;;;;;;;;;;5034379;28;20021;-78
2022/11/17 10:22:02;;;;;;;1.10;0.60;;;;;;;;;;5030854;28;20091;-77
2022/11/17 10:24:32;;;;;;;2.80;0.90;;;;;;;;;;5018839;28;20014;-77
2022/11/17 10:26:58;;;;;;;4.83;0.77;;;;;;;;;;5032859;28;20148;-77
2022/11/17 10:29:24;;;;;;;2.13;0.53;;;;;;;;;;5018915;28;20478;-77
2022/11/17 10:31:50;;;;;;;2.17;0.43;;;;;;;;;;5019474;28;20037;-77
2022/11/17 10:34:42;;;;;;;3.20;0.60;;;;;;;;;;5019403;28;20493;-78
2022/11/17 10:37:14;;;;;;;1.88;0.70;;;;;;;;;;5017919;28;20136;-78
2022/11/17 10:39:41;;;;;;;2.05;0.70;;;;;;;;;;5016458;28;20121;-76
2022/11/17 10:42:20;;;;;;;4.87;0.77;;;;;;;;;;5028303;28;20052;-77
2022/11/17 10:44:53;;;;;;;1.83;0.90;;;;;;;;;;5029510;28;20137;-77
2022/11/17 10:47:38;;;;;;;3.57;0.70;;;;;;;;;;5031266;28;20052;-78
2022/11/17 10:50:17;;;;;;;5.20;1.37;;;;;;;;;;5031874;28;20048;-77
2022/11/17 10:52:43;;;;;;;2.37;0.50;;;;;;;;;;5017450;28;20033;-78
2022/11/17 10:55:38;;;;;;;2.37;0.50;;;;;;;;;;5028852;28;20359;-76
2022/11/17 10:58:15;;;;;;;1.77;0.80;;;;;;;;;;5018910;28;20473;-76
2022/11/17 11:00:41;;;;;;;2.30;0.80;;;;;;;;;;5015997;28;20026;-76
2022/11/17 11:03:10;;;;;;;4.67;0.83;;;;;;;;;;5016297;28;20037;-78
2022/11/17 11:05:37;;;;;;;1.37;0.30;;;;;;;;;;5033598;28;20025;-78
2022/11/17 11:08:23;;;;;;;1.27;0.37;;;;;;;;;;5027498;28;20029;-77
2022/11/17 11:10:51;;;;;;;4.00;0.50;;;;;;;;;;5018170;28;20064;-76
2022/11/17 11:13:17;;;;;;;2.53;0.50;;;;;;;;;;5016051;28;20134;-77
2022/11/17 11:15:44;;;;;;;2.63;0.60;;;;;;;;;;5031414;28;20109;-77
2022/11/17 11:18:15;;;;;;;0.83;0.20;;;;;;;;;;5016918;28;20029;-76
2022/11/17 11:21:07;;;;;;;1.50;0.53;;;;;;;;;;5030484;28;20033;-77
2022/11/17 11:23:43;;;;;;;2.92;0.60;;;;;;;;;;5013430;28;20994;-76
2022/11/17 11:26:27;;;;;;;0.90;0.60;;;;;;;;;;5028303;28;20034;-77
2022/11/17 11:29:04;;;;;;;2.60;0.50;;;;;;;;;;5015436;28;20033;-77
2022/11/17 11:31:55;;;;;;;2.93;0.50;;;;;;;;;;5016346;28;20029;-77
2022/11/17 11:34:27;;;;;;;1.00;0.30;;;;;;;;;;5018227;28;20022;-77
2022/11/17 11:37:03;;;;;;;2.63;0.65;;;;;;;;;;5025895;28;20030;-77
2022/11/17 11:39:29;;;;;;;1.97;0.70;;;;;;;;;;5025563;28;20029;-77
2022/11/17 11:42:03;;;;;;;3.30;0.97;;;;;;;;;;5027835;28;20040;-77
2022/11/17 11:44:32;;;;;;;1.17;0.30;;;;;;;;;;5015518;28;21581;-77
2022/11/17 11:47:01;;;;;;;1.17;0.63;;;;;;;;;;5027155;28;20034;-76
2022/11/17 11:49:46;;;;;;;2.90;0.40;;;;;;;;;;5027896;28;20045;-77
2022/11/17 11:52:20;;;;;;;3.33;0.90;;;;;;;;;;5026619;28;20038;-77
2022/11/17 11:54:55;;;;;;;3.80;0.63;;;;;;;;;;5016185;28;20026;-77
2022/11/17 11:57:25;;;;;;;2.13;0.80;;;;;;;;;;5015536;28;20461;-80
2022/11/17 11:59:51;;;;;;;1.23;0.30;;;;;;;;;;5019001;28;20040;-77
2022/11/17 12:02:22;;;;;;;2.53;0.40;;;;;;;;;;5029161;28;20040;-75
2022/11/17 12:04:48;;;;;;;2.27;0.40;;;;;;;;;;5032943;28;20052;-76
2022/11/17 12:07:34;;;;;;;2.43;0.50;;;;;;;;;;5017951;28;20438;-77
2022/11/17 12:10:04;;;;;;;1.10;0.40;;;;;;;;;;5018125;28;20030;-77
2022/11/17 12:12:36;;;;;;;1.27;0.40;;;;;;;;;;5031045;28;20025;-77
2022/11/17 12:15:06;;;;;;;1.55;0.50;;;;;;;;;;5036230;28;20026;-77
2022/11/17 12:17:32;;;;;;;1.73;0.67;;;;;;;;;;5024811;28;20025;-77
2022/11/17 12:20:01;;;;;;;3.27;0.50;;;;;;;;;;5022538;28;20052;-77
2022/11/17 12:22:33;;;;;;;3.00;0.30;;;;;;;;;;5023049;28;20203;-76
2022/11/17 12:25:13;;;;;;;2.15;0.77;;;;;;;;;;5034711;28;20021;-77
2022/11/17 12:27:40;;;;;;;1.63;0.50;;;;;;;;;;5019720;28;20458;-76
2022/11/17 12:30:26;;;;;;;3.50;0.70;;;;;;;;;;5021758;28;20068;-77
2022/11/17 12:32:53;;;;;;;6.17;1.00;;;;;;;;;;5025889;28;20072;-77
2022/11/17 12:35:26;;;;;;;4.37;1.00;;;;;;;;;;5021370;28;20029;-77
2022/11/17 12:38:30;;;;;;;3.43;0.77;;;;;;;;;;5033429;28;20048;-77
2022/11/17 12:40:56;;;;;;;2.53;0.50;;;;;;;;;;5034032;28;20080;-76
2022/11/17 12:43:24;;;;;;;3.40;0.70;;;;;;;;;;5035264;28;20122;-77
2022/11/17 12:45:52;;;;;;;4.60;0.77;;;;;;;;;;5035862;28;20048;-76
2022/11/17 12:48:27;;;;;;;4.77;0.70;;;;;;;;;;5036754;28;20404;-76
2022/11/17 12:51:06;;;;;;;2.50;0.77;;;;;;;;;;5036391;28;20060;-77
2022/11/17 12:53:48;;;;;;;4.37;1.07;;;;;;;;;;5023485;28;20033;-76
2022/11/17 12:56:23;;;;;;;3.67;0.45;;;;;;;;;;5022615;28;20095;-77
2022/11/17 12:58:58;;;;;;;3.97;0.67;;;;;;;;;;5022584;28;20034;-76
2022/11/17 13:01:33;;;;;;;2.13;0.67;;;;;;;;;;5023052;28;20025;-76
2022/11/17 13:04:12;;;;;;;1.42;0.80;;;;;;;;;;5034457;28;20098;-77
2022/11/17 13:06:57;;;;;;;2.60;0.57;;;;;;;;;;5025104;28;20073;-77
2022/11/17 13:09:25;;;;;;;2.03;0.40;;;;;;;;;;5033008;28;20092;-77
2022/11/17 13:12:03;;;;;;;2.17;0.60;;;;;;;;;;5034984;28;20038;-76
2022/11/17 13:14:32;;;;;;;3.17;0.80;;;;;;;;;;5036990;28;20040;-76
2022/11/17 13:16:59;;;;;;;2.10;0.80;;;;;;;;;;5035799;28;21833;-77
2022/11/17 13:19:31;;;;;;;4.40;1.37;;;;;;;;;;5022290;28;20140;-76
2022/11/17 13:22:13;;;;;;;2.80;0.80;;;;;;;;;;5024349;28;20029;-76
2022/11/17 13:24:40;;;;;;;2.95;1.00;;;;;;;;;;5022150;28;20034;-77
2022/11/17 13:27:16;;;;;;;2.40;0.93;;;;;;;;;;5018706;28;20040;-76
2022/11/17 13:29:44;;;;;;;2.70;0.90;;;;;;;;;;5020853;28;20377;-76
2022/11/17 13:32:15;;;;;;;1.40;0.67;;;;;;;;;;5012935;28;20049;-76
2022/11/17 13:34:45;;;;;;;4.20;1.40;;;;;;;;;;5032347;28;20065;-76
2022/11/17 13:37:17;;;;;;;7.22;1.15;;;;;;;;;;5032086;28;20525;-76
2022/11/17 13:39:53;;;;;;;3.33;1.07;;;;;;;;;;5016534;28;20041;-77
2022/11/17 13:42:19;;;;;;;4.32;1.20;;;;;;;;;;5019249;28;20067;-77
2022/11/17 13:44:48;;;;;;;2.53;0.73;;;;;;;;;;5027393;28;20442;-76
2022/11/17 13:47:25;;;;;;;4.57;1.00;;;;;;;;;;5034131;28;20026;-76
2022/11/17 13:49:51;;;;;;;5.70;0.75;;;;;;;;;;5020943;28;20037;-77
2022/11/17 13:52:34;;;;;;;4.25;1.27;;;;;;;;;;5020903;28;20029;-76
2022/11/17 13:55:00;;;;;;;3.80;1.23;;;;;;;;;;5029004;28;20017;-76
2022/11/17 13:57:30;;;;;;;4.15;0.80;;;;;;;;;;5016476;28;20072;-75
2022/11/17 13:59:59;;;;;;;5.63;1.38;;;;;;;;;;5021147;28;20037;-76
2022/11/17 14:02:28;;;;;;;5.70;1.63;;;;;;;;;;5030286;28;20584;-76
2022/11/17 14:05:09;;;;;;;4.68;1.33;;;;;;;;;;5031822;28;20033;-76
2022/11/17 14:07:36;;;;;;;7.45;1.52;;;;;;;;;;5032052;28;20041;-75
2022/11/17 14:10:14;;;;;;;4.18;1.40;;;;;;;;;;5017600;28;20128;-76
2022/11/17 14:12:40;;;;;;;5.88;1.40;;;;;;;;;;5031308;28;20063;-77
2022/11/17 14:15:33;;;;;;;7.40;1.42;;;;;;;;;;5031045;28;20041;-76
2022/11/17 14:18:00;;;;;;;5.72;3.00;;;;;;;;;;5017670;28;20052;-77
2022/11/17 14:20:28;;;;;;;7.05;1.58;;;;;;;;;;5017417;28;20520;-77
2022/11/17 14:23:00;;;;;;;5.63;1.38;;;;;;;;;;5019481;28;20500;-77
2022/11/17 14:25:27;;;;;;;2.03;0.65;;;;;;;;;;5029025;28;20064;-77
2022/11/17 14:27:53;;;;;;;2.35;0.50;;;;;;;;;;5031769;28;20247;-77
2022/11/17 14:30:19;;;;;;;2.63;0.90;;;;;;;;;;5019023;28;20029;-76
2022/11/17 14:32:45;;;;;;;3.20;0.73;;;;;;;;;;5026537;28;20516;-77
2022/11/17 14:35:15;;;;;;;4.45;0.80;;;;;;;;;;5030534;28;20060;-77
2022/11/17 14:37:41;;;;;;;4.05;1.30;;;;;;;;;;5015953;28;20453;-76
2022/11/17 14:40:16;;;;;;;2.30;0.60;;;;;;;;;;5018201;28;20055;-75
2022/11/17 14:42:44;;;;;;;3.67;1.00;;;;;;;;;;5021095;28;20042;-76
2022/11/17 14:45:17;;;;;;;3.63;1.23;;;;;;;;;;5030436;28;20042;-76
2022/11/17 14:47:43;;;;;;;5.35;1.67;;;;;;;;;;5030999;28;20076;-76
2022/11/17 14:50:12;;;;;;;5.20;1.67;;;;;;;;;;5017367;28;20061;-77
2022/11/17 14:52:45;;;;;;;3.37;0.80;;;;;;;;;;5029651;28;20030;-76
2022/11/17 14:55:11;;;;;;;;;;;;;;;;;;5031085;28;20026;-76
2022/11/17 14:57:37;;;;;;;3.23;0.70;;;;;;;;;;5017861;28;20372;-77
2022/11/17 15:00:04;;;;;;;8.30;1.10;;;;;;;;;;5026568;28;20028;-76
2022/11/17 15:02:30;;;;;;;3.40;0.80;;;;;;;;;;5015717;28;20021;-76
2022/11/17 15:04:58;;;;;;;2.23;0.67;;;;;;;;;;5016198;28;20041;-76
2022/11/17 15:07:24;;;;;;;3.07;1.00;;;;;;;;;;5028344;28;20018;-77
2022/11/17 15:09:50;;;;;;;4.53;1.30;;;;;;;;;;5019234;28;20056;-76
2022/11/17 15:12:18;;;;;;;3.83;1.00;;;;;;;;;;5019919;28;20029;-76
2022/11/17 15:14:46;;;;;;;5.47;1.40;;;;;;;;;;5021666;28;20041;-76
2022/11/17 15:17:12;;;;;;;6.80;1.57;;;;;;;;;;5029841;28;20026;-77
2022/11/17 15:19:38;;;;;;;4.30;1.40;;;;;;;;;;5032062;28;20037;-77
2022/11/17 15:22:04;;;;;;;5.83;1.60;;;;;;;;;;5033723;28;20030;-76
2022/11/17 15:24:30;;;;;;;4.17;1.47;;;;;;;;;;5020844;28;20094;-76
2022/11/17 15:26:56;;;;;;;5.90;1.30;;;;;;;;;;5017853;28;20064;-76
2022/11/17 15:29:22;;;;;;;6.50;1.60;;;;;;;;;;5018411;28;20056;-76